Time;durP1;ratioP1;P1;durP2;ratioP2;P2;SDS_P1;SDS_P2;PMS_P1;PMS_P2;Temp;Humidity;BMP_temperature;BMP_pressure;BME280_temperature;BME280_humidity;BME280_pressure;Samples;Min_cycle;Max_cycle;Signal;HPM_P1;HPM_P2
2022/03/11 00:00:42;;;;;;;;;;;;;;;4.26;73.63;102410.28;5012599;28;19917;-86
2022/03/11 00:03:10;;;;;;;;;;;;;;;4.31;73.24;102403.00;5008033;28;20346;-87
2022/03/11 00:05:36;;;;;;;;;;;;;;;4.40;73.28;102406.59;5007867;28;20280;-87
2022/03/11 00:08:01;;;;;;;;;;;;;;;4.38;73.15;102405.50;5024619;28;19925;-87
2022/03/11 00:10:27;;;;;;;;;;;;;;;4.38;73.56;102407.16;5009662;28;20454;-86
2022/03/11 00:12:52;;;;;;;;;;;;;;;4.34;73.21;102410.16;5027722;28;20354;-86
2022/03/11 00:15:18;;;;;;;;;;;;;;;4.25;73.35;102411.06;5012159;28;19918;-86
2022/03/11 00:17:43;;;;;;;;;;;;;;;4.31;73.34;102405.59;5027471;28;20382;-87
2022/03/11 00:20:09;;;;;;;;;;;;;;;4.21;73.46;102407.97;5012203;28;19925;-87
2022/03/11 00:22:34;;;;;;;;;;;;;;;4.28;73.69;102413.94;5007921;28;19917;-90
2022/03/11 00:25:00;;;;;;;;;;;;;;;4.41;72.67;102397.16;5011260;28;19921;-90
2022/03/11 00:27:25;;;;;;;;;;;;;;;4.31;73.43;102399.50;5011548;28;19917;-88
2022/03/11 00:29:53;;;;;;;;;;;;;;;4.20;73.59;102401.88;5011006;28;19921;-89
2022/03/11 00:32:18;;;;;;;;;;;;;;;4.22;73.55;102404.63;5027745;28;19917;-89
2022/03/11 00:34:45;;;;;;;;;;;;;;;4.23;73.13;102404.81;5024405;28;19918;-90
2022/03/11 00:37:14;;;;;;;;;;;;;;;4.18;73.45;102400.81;5026193;28;20012;-90
2022/03/11 00:39:40;;;;;;;;;;;;;;;4.14;73.88;102405.50;5012283;28;19917;-89
2022/03/11 00:42:09;;;;;;;;;;;;;;;4.25;73.29;102410.13;5007806;28;19929;-87
2022/03/11 00:44:35;;;;;;;;;;;;;;;4.21;73.40;102406.31;5027282;28;19922;-88
2022/03/11 00:47:01;;;;;;;;;;;;;;;4.21;73.24;102402.78;5011202;28;20041;-87
2022/03/11 00:49:27;;;;;;;;;;;;;;;4.28;73.19;102397.53;5024674;28;19920;-89
2022/03/11 00:51:52;;;;;;;;;;;;;;;4.31;72.94;102402.09;4998898;28;19917;-89
2022/03/11 00:54:18;;;;;;;;;;;;;;;4.20;73.37;102407.06;5011343;28;19919;-89
2022/03/11 00:56:43;;;;;;;;;;;;;;;4.17;73.66;102401.56;5028616;28;20423;-90
2022/03/11 00:59:10;;;;;;;;;;;;;;;4.37;72.36;102416.59;5015251;28;19913;-86
2022/03/11 01:01:35;;;;;;;;;;;;;;;4.29;72.89;102414.84;5032030;28;19967;-89
2022/03/11 01:04:01;;;;;;;;;;;;;;;4.40;72.58;102413.41;5018618;28;19913;-87
2022/03/11 01:06:29;;;;;;;;;;;;;;;4.31;72.79;102410.75;5001696;28;19992;-87
2022/03/11 01:08:54;;;;;;;;;;;;;;;4.21;73.57;102408.91;5034910;28;19909;-86
2022/03/11 01:11:20;;;;;;;;;;;;;;;4.21;73.58;102407.97;5035392;28;19917;-87
2022/03/11 01:13:45;;;;;;;;;;;;;;;4.23;73.24;102403.88;5018308;28;19916;-87
2022/03/11 01:16:11;;;;;;;;;;;;;;;4.28;72.74;102410.47;5035699;28;19917;-88
2022/03/11 01:18:36;;;;;;;;;;;;;;;4.30;72.74;102398.59;5014098;28;19921;-88
2022/03/11 01:21:04;;;;;;;;;;;;;;;4.23;72.77;102409.97;4998489;28;19936;-89
2022/03/11 01:23:29;;;;;;;;;;;;;;;4.31;72.52;102413.34;5015969;28;19917;-88
2022/03/11 01:25:55;;;;;;;;;;;;;;;4.22;72.46;102395.19;5016004;28;19996;-89
2022/03/11 01:28:20;;;;;;;;;;;;;;;4.18;73.00;102407.66;4999443;28;20058;-89
2022/03/11 01:30:49;;;;;;;;;;;;;;;4.08;73.90;102403.16;5035298;28;20007;-90
2022/03/11 01:33:16;;;;;;;;;;;;;;;4.18;72.78;102411.16;5014463;28;19921;-89
2022/03/11 01:35:42;;;;;;;;;;;;;;;4.21;72.88;102413.13;5031223;28;19924;-88
2022/03/11 01:38:07;;;;;;;;;;;;;;;4.04;73.66;102424.28;5017406;28;19917;-88
2022/03/11 01:40:33;;;;;;;;;;;;;;;4.16;72.94;102415.22;5000950;28;19917;-88
2022/03/11 01:42:58;;;;;;;;;;;;;;;4.27;72.42;102408.59;5017126;28;20314;-88
2022/03/11 01:45:25;;;;;;;;;;;;;;;4.12;72.93;102404.41;5000721;28;19917;-86
2022/03/11 01:47:53;;;;;;;;;;;;;;;4.21;73.15;102405.38;5017449;28;19921;-89
2022/03/11 01:50:23;;;;;;;;;;;;;;;4.29;72.56;102395.09;5034211;28;19913;-90
2022/03/11 01:52:48;;;;;;;;;;;;;;;4.27;72.55;102399.16;5017775;28;20000;-90
2022/03/11 01:55:14;;;;;;;;;;;;;;;4.22;72.14;102407.22;5053850;28;19956;-90
2022/03/11 01:57:39;;;;;;;;;;;;;;;4.17;72.28;102399.00;5038008;28;20352;-88
2022/03/11 02:00:05;;;;;;;;;;;;;;;4.19;72.31;102397.47;5000147;28;20428;-86
2022/03/11 02:02:32;;;;;;;;;;;;;;;4.16;72.12;102404.00;5016149;28;19925;-87
2022/03/11 02:04:57;;;;;;;;;;;;;;;4.20;72.21;102386.38;5034519;28;20015;-88
2022/03/11 02:07:23;;;;;;;;;;;;;;;4.17;72.22;102378.31;5015260;28;19971;-89
2022/03/11 02:09:49;;;;;;;;;;;;;;;4.28;71.37;102393.25;5017185;28;19975;-87
2022/03/11 02:12:31;;;;;;;;;;;;;;;4.22;71.69;102407.22;5000919;28;19921;-88
2022/03/11 02:15:00;;;;;;;;;;;;;;;4.13;71.63;102401.06;5000261;28;19924;-87
2022/03/11 02:17:25;;;;;;;;;;;;;;;4.22;71.21;102417.56;5017297;28;19917;-87
2022/03/11 02:19:51;;;;;;;;;;;;;;;4.24;71.73;102411.78;5017409;28;19919;-87
2022/03/11 02:22:17;;;;;;;;;;;;;;;4.21;71.25;102408.91;5016556;28;20009;-88
2022/03/11 02:24:42;;;;;;;;;;;;;;;4.22;71.64;102413.31;5016747;28;20349;-88
2022/03/11 02:27:09;;;;;;;;;;;;;;;4.23;71.60;102406.44;4999863;28;19917;-87
2022/03/11 02:29:37;;;;;;;;;;;;;;;4.09;72.06;102415.34;5000090;28;20390;-87
2022/03/11 02:32:03;;;;;;;;;;;;;;;4.06;71.84;102413.38;5016731;28;19923;-87
2022/03/11 02:34:28;;;;;;;;;;;;;;;4.16;71.85;102420.41;5016257;28;19917;-87
2022/03/11 02:36:56;;;;;;;;;;;;;;;4.05;72.00;102433.88;5016483;28;19921;-87
2022/03/11 02:39:21;;;;;;;;;;;;;;;4.20;71.79;102424.25;5000190;28;20012;-87
2022/03/11 02:41:49;;;;;;;;;;;;;;;4.27;71.31;102430.22;5000263;28;19983;-86
2022/03/11 02:44:30;;;;;;;;;;;;;;;4.19;71.45;102422.41;5016819;28;19924;-88
2022/03/11 02:47:18;;;;;;;;;;;;;;;4.22;71.75;102430.50;4999259;28;19924;-89
2022/03/11 02:49:48;;;;;;;;;;;;;;;4.14;71.80;102426.19;5033595;28;19913;-90
2022/03/11 02:52:14;;;;;;;;;;;;;;;4.19;71.67;102424.97;5033203;28;20464;-91
2022/03/11 02:54:42;;;;;;;;;;;;;;;4.15;71.67;102425.41;5032996;28;19953;-88
2022/03/11 02:57:08;;;;;;;;;;;;;;;4.19;71.11;102415.59;5026363;28;19952;-89
2022/03/11 02:59:37;;;;;;;;;;;;;;;4.19;71.21;102422.41;5031426;28;19971;-88
2022/03/11 03:02:19;;;;;;;;;;;;;;;4.05;71.75;102415.78;4997764;28;19914;-90
2022/03/11 03:05:01;;;;;;;;;;;;;;;4.12;71.13;102420.84;5015684;28;19921;-93
2022/03/11 03:07:38;;;;;;;;;;;;;;;4.08;71.52;102427.38;5030281;28;19917;-90
2022/03/11 03:10:29;;;;;;;;;;;;;;;4.06;71.42;102426.28;5029811;28;19976;-90
2022/03/11 03:12:55;;;;;;;;;;;;;;;4.08;71.40;102424.78;5029218;28;19917;-87
2022/03/11 03:15:21;;;;;;;;;;;;;;;4.08;71.84;102429.97;5006801;28;19921;-88
2022/03/11 03:17:47;;;;;;;;;;;;;;;4.04;71.49;102420.03;5028968;28;19917;-88
2022/03/11 03:20:12;;;;;;;;;;;;;;;4.05;71.30;102431.28;5012564;28;20288;-87
2022/03/11 03:22:39;;;;;;;;;;;;;;;4.00;71.31;102433.38;4996084;28;20377;-88
2022/03/11 03:25:05;;;;;;;;;;;;;;;4.11;71.23;102434.53;5031921;28;19917;-87
2022/03/11 03:27:31;;;;;;;;;;;;;;;4.11;71.26;102438.75;5015570;28;19992;-87
2022/03/11 03:29:57;;;;;;;;;;;;;;;4.07;71.56;102432.38;5015357;28;19967;-87
2022/03/11 03:32:23;;;;;;;;;;;;;;;4.11;71.11;102442.28;4999168;28;19916;-88
2022/03/11 03:34:48;;;;;;;;;;;;;;;3.99;71.28;102443.56;5015199;28;19924;-88
2022/03/11 03:37:13;;;;;;;;;;;;;;;4.07;70.84;102442.72;5015863;28;19940;-88
2022/03/11 03:39:41;;;;;;;;;;;;;;;4.03;71.26;102446.63;5015389;28;19917;-88
2022/03/11 03:42:20;;;;;;;;;;;;;;;4.00;71.46;102451.47;4998813;28;19969;-88
2022/03/11 03:44:47;;;;;;;;;;;;;;;3.94;71.20;102445.66;4998779;28;19917;-87
2022/03/11 03:47:13;;;;;;;;;;;;;;;4.02;71.19;102439.63;5015322;28;19917;-86
2022/03/11 03:49:40;;;;;;;;;;;;;;;3.97;70.68;102443.38;5032738;28;19917;-87
2022/03/11 03:52:11;;;;;;;;;;;;;;;3.93;71.48;102450.66;5032617;28;20544;-88
2022/03/11 03:54:36;;;;;;;;;;;;;;;4.04;71.00;102448.47;5015198;28;20642;-86
2022/03/11 03:57:09;;;;;;;;;;;;;;;4.04;70.59;102453.66;5011115;28;19924;-87
2022/03/11 03:59:35;;;;;;;;;;;;;;;3.97;70.44;102450.22;5011939;28;19913;-87
2022/03/11 04:02:03;;;;;;;;;;;;;;;3.90;71.32;102453.81;5023910;28;19921;-88
2022/03/11 04:04:29;;;;;;;;;;;;;;;3.95;70.81;102455.22;5022368;28;19917;-88
2022/03/11 04:06:55;;;;;;;;;;;;;;;3.97;70.58;102456.31;5028261;28;19967;-89
2022/03/11 04:09:27;;;;;;;;;;;;;;;4.04;70.84;102457.88;5028634;28;19921;-89
2022/03/11 04:12:02;;;;;;;;;;;;;;;3.83;71.27;102457.41;5027714;28;19917;-90
2022/03/11 04:14:30;;;;;;;;;;;;;;;3.82;71.36;102463.31;5012061;28;19924;-89
2022/03/11 04:16:56;;;;;;;;;;;;;;;3.87;71.03;102462.16;5012677;28;20384;-87
2022/03/11 04:19:21;;;;;;;;;;;;;;;3.93;70.69;102463.56;5011463;28;20011;-86
2022/03/11 04:21:47;;;;;;;;;;;;;;;4.00;70.71;102466.06;5012447;28;19924;-87
2022/03/11 04:24:14;;;;;;;;;;;;;;;4.02;70.31;102465.50;5012414;28;19913;-87
2022/03/11 04:26:46;;;;;;;;;;;;;;;3.91;71.11;102471.16;5010865;28;19918;-87
2022/03/11 04:29:12;;;;;;;;;;;;;;;3.83;71.11;102479.72;5016443;28;19929;-87
2022/03/11 04:31:38;;;;;;;;;;;;;;;3.84;71.53;102476.41;5024128;28;20379;-86
2022/03/11 04:34:04;;;;;;;;;;;;;;;3.87;70.69;102480.25;5027157;28;19975;-86
2022/03/11 04:36:31;;;;;;;;;;;;;;;3.80;71.34;102485.50;5024171;28;19981;-85
2022/03/11 04:38:56;;;;;;;;;;;;;;;3.86;71.20;102493.91;5024565;28;19979;-85
2022/03/11 04:41:22;;;;;;;;;;;;;;;3.88;71.15;102491.50;5008539;28;20450;-85
2022/03/11 04:43:47;;;;;;;;;;;;;;;3.84;70.72;102504.84;5026910;28;19944;-83
2022/03/11 04:46:13;;;;;;;;;;;;;;;3.81;71.34;102497.69;5011583;28;19921;-86
2022/03/11 04:48:40;;;;;;;;;;;;;;;3.66;71.39;102495.97;5011088;28;20433;-86
2022/03/11 04:51:06;;;;;;;;;;;;;;;3.74;71.37;102508.09;5010543;28;19920;-85
2022/03/11 04:53:31;;;;;;;;;;;;;;;3.73;71.21;102508.84;5010666;28;19918;-86
2022/03/11 04:55:56;;;;;;;;;;;;;;;3.78;71.47;102511.94;5024946;28;19999;-86
2022/03/11 04:58:22;;;;;;;;;;;;;;;3.58;71.76;102505.50;5020996;28;19924;-87
2022/03/11 05:00:47;;;;;;;;;;;;;;;3.73;72.05;102506.25;5006885;28;19914;-87
2022/03/11 05:03:15;;;;;;;;;;;;;;;3.82;70.77;102519.25;5024951;28;19925;-88
2022/03/11 05:05:43;;;;;;;;;;;;;;;3.74;71.42;102514.91;5026669;28;19979;-86
2022/03/11 05:08:09;;;;;;;;;;;;;;;3.70;71.50;102516.25;5027018;28;19921;-87
2022/03/11 05:10:34;;;;;;;;;;;;;;;3.79;71.23;102517.28;5010228;28;19913;-86
2022/03/11 05:13:00;;;;;;;;;;;;;;;3.81;70.79;102523.53;5027268;28;20189;-87
2022/03/11 05:15:26;;;;;;;;;;;;;;;3.74;71.21;102522.69;5011325;28;20072;-86
2022/03/11 05:17:53;;;;;;;;;;;;;;;3.67;71.23;102514.25;5027406;28;19917;-87
2022/03/11 05:20:20;;;;;;;;;;;;;;;3.55;71.95;102514.56;5011061;28;19914;-88
2022/03/11 05:22:46;;;;;;;;;;;;;;;3.64;71.63;102536.22;5009955;28;20063;-90
2022/03/11 05:25:13;;;;;;;;;;;;;;;3.75;70.93;102528.03;5009674;28;20015;-89
2022/03/11 05:27:40;;;;;;;;;;;;;;;3.74;71.13;102528.75;5002694;28;19940;-88
2022/03/11 05:30:06;;;;;;;;;;;;;;;3.69;71.18;102529.03;5007865;28;19917;-88
2022/03/11 05:32:31;;;;;;;;;;;;;;;3.65;71.43;102518.31;5010054;28;19928;-86
2022/03/11 05:34:57;;;;;;;;;;;;;;;3.69;71.38;102539.34;5026469;28;19920;-84
2022/03/11 05:37:22;;;;;;;;;;;;;;;3.59;71.15;102520.22;5011542;28;20298;-84
2022/03/11 05:39:48;;;;;;;;;;;;;;;3.67;71.44;102523.66;5010896;28;19913;-84
2022/03/11 05:42:13;;;;;;;;;;;;;;;3.73;71.17;102520.84;5013508;28;19917;-85
2022/03/11 05:44:39;;;;;;;;;;;;;;;3.65;70.72;102528.66;5013401;28;20008;-84
2022/03/11 05:47:04;;;;;;;;;;;;;;;3.54;71.57;102512.75;5014586;28;19918;-84
2022/03/11 05:49:29;;;;;;;;;;;;;;;3.54;71.73;102530.84;5029582;28;19961;-86
2022/03/11 05:51:56;;;;;;;;;;;;;;;3.53;71.45;102516.06;5014498;28;19918;-85
2022/03/11 05:54:21;;;;;;;;;;;;;;;3.51;70.86;102525.31;5026548;28;19922;-85
2022/03/11 05:56:53;;;;;;;;;;;;;;;3.48;70.89;102518.16;5030109;28;19940;-86
2022/03/11 05:59:20;;;;;;;;;;;;;;;3.50;70.93;102526.06;5024854;28;19923;-83
2022/03/11 06:01:46;;;;;;;;;;;;;;;3.45;71.80;102538.44;5023083;28;19918;-89
2022/03/11 06:04:11;;;;;;;;;;;;;;;3.57;71.36;102521.72;5012521;28;19925;-86
2022/03/11 06:06:37;;;;;;;;;;;;;;;3.46;71.30;102529.97;5014447;28;19921;-85
2022/03/11 06:09:03;;;;;;;;;;;;;;;3.38;71.93;102530.78;5019744;28;20295;-87
2022/03/11 06:11:28;;;;;;;;;;;;;;;3.54;71.39;102538.59;5001122;28;19917;-87
2022/03/11 06:13:54;;;;;;;;;;;;;;;3.48;71.52;102531.06;5003446;28;20015;-86
2022/03/11 06:16:19;;;;;;;;;;;;;;;3.39;71.35;102536.13;5014448;28;19913;-88
2022/03/11 06:18:44;;;;;;;;;;;;;;;3.39;71.97;102523.22;5030199;28;19964;-86
2022/03/11 06:21:11;;;;;;;;;;;;;;;3.37;72.02;102536.72;5013487;28;19921;-88
2022/03/11 06:23:37;;;;;;;;;;;;;;;3.37;71.75;102534.13;5036930;28;19924;-88
2022/03/11 06:26:03;;;;;;;;;;;;;;;3.28;71.73;102540.84;5039825;28;19913;-88
2022/03/11 06:28:28;;;;;;;;;;;;;;;3.36;72.24;102535.78;5033305;28;19916;-86
2022/03/11 06:30:55;;;;;;;;;;;;;;;3.33;71.86;102524.22;5003745;28;19917;-87
2022/03/11 06:33:21;;;;;;;;;;;;;;;3.40;71.21;102537.03;5014599;28;19975;-86
2022/03/11 06:35:46;;;;;;;;;;;;;;;3.34;71.72;102521.78;5014414;28;20345;-86
2022/03/11 06:38:12;;;;;;;;;;;;;;;3.25;71.70;102529.41;5025699;28;19921;-85
2022/03/11 06:40:37;;;;;;;;;;;;;;;3.26;72.14;102527.78;5013589;28;19976;-89
2022/03/11 06:43:03;;;;;;;;;;;;;;;3.23;71.80;102523.16;5009287;28;19917;-88
2022/03/11 06:45:29;;;;;;;;;;;;;;;3.26;72.03;102520.94;5021718;28;19913;-90
2022/03/11 06:47:57;;;;;;;;;;;;;;;3.24;72.17;102519.84;5020937;28;20005;-89
2022/03/11 06:50:27;;;;;;;;;;;;;;;3.19;72.22;102531.31;5012917;28;19917;-91
2022/03/11 06:52:54;;;;;;;;;;;;;;;3.14;72.28;102519.56;4996453;28;19960;-88
2022/03/11 06:55:19;;;;;;;;;;;;;;;3.20;71.91;102516.75;4998189;28;19925;-88
2022/03/11 06:57:45;;;;;;;;;;;;;;;3.18;71.51;102520.84;5013873;28;19918;-86
2022/03/11 07:00:11;;;;;;;;;;;;;;;3.20;72.37;102516.75;5033214;28;20451;-86
2022/03/11 07:02:37;;;;;;;;;;;;;;;3.21;72.20;102531.50;5013903;28;19969;-88
2022/03/11 07:05:03;;;;;;;;;;;;;;;3.26;72.16;102525.19;5038115;28;20020;-87
2022/03/11 07:07:30;;;;;;;;;;;;;;;3.15;72.33;102523.06;5024945;28;20291;-87
2022/03/11 07:09:56;;;;;;;;;;;;;;;3.29;72.25;102530.69;5002482;28;20007;-87
2022/03/11 07:12:24;;;;;;;;;;;;;;;3.18;72.10;102532.06;5020277;28;20051;-90
2022/03/11 07:14:49;;;;;;;;;;;;;;;3.39;70.56;102519.72;5033012;28;19920;-88
2022/03/11 07:17:15;;;;;;;;;;;;;;;3.16;71.27;102530.97;4998774;28;20401;-89
2022/03/11 07:19:41;;;;;;;;;;;;;;;3.09;71.63;102548.19;4999555;28;19959;-87
2022/03/11 07:22:07;;;;;;;;;;;;;;;3.07;72.02;102537.72;4999381;28;19913;-88
2022/03/11 07:24:33;;;;;;;;;;;;;;;3.07;72.09;102550.63;5015175;28;19917;-89
2022/03/11 07:26:58;;;;;;;;;;;;;;;3.08;72.18;102533.44;5015986;28;19995;-88
2022/03/11 07:29:25;;;;;;;;;;;;;;;3.08;72.40;102542.09;4999352;28;19913;-88
2022/03/11 07:31:50;;;;;;;;;;;;;;;3.04;72.51;102539.94;5015332;28;19917;-88
2022/03/11 07:34:20;;;;;;;;;;;;;;;3.16;71.81;102527.50;5032316;28;19913;-89
2022/03/11 07:36:46;;;;;;;;;;;;;;;3.04;71.97;102538.25;5032319;28;19971;-89
2022/03/11 07:39:11;;;;;;;;;;;;;;;3.12;71.69;102533.06;5030653;28;19916;-89
2022/03/11 07:41:37;;;;;;;;;;;;;;;3.08;71.10;102534.38;5034220;28;19977;-89
2022/03/11 07:44:03;;;;;;;;;;;;;;;3.03;71.97;102535.53;5043264;28;19946;-87
2022/03/11 07:46:30;;;;;;;;;;;;;;;3.07;71.77;102542.88;5039302;28;20250;-88
2022/03/11 07:49:01;;;;;;;;;;;;;;;3.11;71.33;102532.16;5044367;28;19913;-89
2022/03/11 07:51:26;;;;;;;;;;;;;;;3.02;71.56;102526.84;5035414;28;19978;-89
2022/03/11 07:53:53;;;;;;;;;;;;;;;3.11;71.32;102521.81;5018689;28;19912;-90
2022/03/11 07:56:18;;;;;;;;;;;;;;;3.04;71.52;102521.84;5039953;28;19916;-89
2022/03/11 07:58:44;;;;;;;;;;;;;;;2.99;71.52;102535.94;5041949;28;20016;-89
2022/03/11 08:01:09;;;;;;;;;;;;;;;3.00;70.75;102541.22;5032723;28;19960;-89
2022/03/11 08:03:36;;;;;;;;;;;;;;;3.03;71.58;102543.28;5027978;28;19967;-89
2022/03/11 08:06:04;;;;;;;;;;;;;;;2.97;71.65;102533.16;5023172;28;20004;-88
2022/03/11 08:08:31;;;;;;;;;;;;;;;3.04;71.78;102539.94;5030601;28;20367;-89
2022/03/11 08:10:56;;;;;;;;;;;;;;;3.02;70.76;102523.34;5001129;28;20298;-88
2022/03/11 08:13:22;;;;;;;;;;;;;;;2.96;71.02;102522.66;5015915;28;20401;-88
2022/03/11 08:15:53;;;;;;;;;;;;;;;2.96;71.21;102520.06;5015165;28;20015;-90
2022/03/11 08:18:22;;;;;;;;;;;;;;;2.91;72.10;102527.31;5014947;28;20462;-88
2022/03/11 08:20:47;;;;;;;;;;;;;;;2.92;71.49;102528.22;5017044;28;19917;-88
2022/03/11 08:23:13;;;;;;;;;;;;;;;2.92;70.99;102520.47;4997110;28;19924;-89
2022/03/11 08:25:39;;;;;;;;;;;;;;;2.90;71.32;102528.06;5004811;28;20318;-89
2022/03/11 08:28:10;;;;;;;;;;;;;;;2.89;70.69;102521.06;5031274;28;19914;-88
2022/03/11 08:30:35;;;;;;;;;;;;;;;2.90;70.92;102532.28;5044828;28;19912;-87
2022/03/11 08:33:05;;;;;;;;;;;;;;;2.89;70.88;102518.47;5026163;28;19928;-88
2022/03/11 08:35:31;;;;;;;;;;;;;;;2.91;70.08;102523.81;5011757;28;19909;-87
2022/03/11 08:37:58;;;;;;;;;;;;;;;2.94;70.58;102529.31;5011651;28;19920;-88
2022/03/11 08:40:26;;;;;;;;;;;;;;;2.93;70.11;102517.16;5011213;28;20393;-87
2022/03/11 08:42:51;;;;;;;;;;;;;;;2.91;70.24;102535.03;5046349;28;19917;-88
2022/03/11 08:45:18;;;;;;;;;;;;;;;2.89;70.33;102522.72;5050387;28;20011;-88
2022/03/11 08:47:43;;;;;;;;;;;;;;;2.86;71.18;102515.56;5010401;28;19922;-89
2022/03/11 08:50:09;;;;;;;;;;;;;;;2.88;70.53;102534.72;5011441;28;19920;-89
2022/03/11 08:52:36;;;;;;;;;;;;;;;2.89;71.04;102514.97;4995210;28;19913;-89
2022/03/11 08:55:04;;;;;;;;;;;;;;;2.87;70.70;102530.28;5027904;28;19930;-89
2022/03/11 08:57:29;;;;;;;;;;;;;;;2.92;70.04;102505.94;5046908;28;20529;-89
2022/03/11 08:59:55;;;;;;;;;;;;;;;2.92;71.19;102511.09;4985716;28;19921;-87
2022/03/11 09:02:22;;;;;;;;;;;;;;;2.98;70.54;102518.59;5000381;28;19921;-87
2022/03/11 09:04:48;;;;;;;;;;;;;;;2.89;71.18;102518.47;5012837;28;20378;-89
2022/03/11 09:07:16;;;;;;;;;;;;;;;2.87;71.49;102524.22;5026848;28;19926;-90
2022/03/11 09:09:47;;;;;;;;;;;;;;;2.87;71.07;102529.38;5012106;28;19971;-90
2022/03/11 09:12:13;;;;;;;;;;;;;;;2.87;71.17;102522.53;5012664;28;19920;-89
2022/03/11 09:14:45;;;;;;;;;;;;;;;2.88;71.18;102519.22;4979332;28;19917;-90
2022/03/11 09:17:14;;;;;;;;;;;;;;;2.84;70.58;102517.97;5032385;28;19917;-89
2022/03/11 09:19:43;;;;;;;;;;;;;;;2.84;70.36;102517.06;4999008;28;19914;-90
2022/03/11 09:22:09;;;;;;;;;;;;;;;2.88;70.75;102526.03;5035569;28;20019;-89
2022/03/11 09:24:35;;;;;;;;;;;;;;;2.83;70.50;102523.84;5002477;28;19967;-89
2022/03/11 09:27:00;;;;;;;;;;;;;;;2.89;70.81;102513.31;5023046;28;19921;-89
2022/03/11 09:29:31;;;;;;;;;;;;;;;2.92;70.82;102515.31;5047349;28;19924;-90
2022/03/11 09:31:56;;;;;;;;;;;;;;;2.95;70.59;102520.84;5041397;28;19913;-89
2022/03/11 09:34:23;;;;;;;;;;;;;;;2.88;70.69;102523.44;5018229;28;20059;-88
2022/03/11 09:36:52;;;;;;;;;;;;;;;2.87;70.80;102526.78;5005470;28;19917;-88
2022/03/11 09:39:18;;;;;;;;;;;;;;;2.81;70.94;102527.00;5005554;28;19924;-90
2022/03/11 09:41:48;;;;;;;;;;;;;;;2.82;71.14;102531.44;5018225;28;19979;-91
2022/03/11 09:44:18;;;;;;;;;;;;;;;2.83;70.81;102516.09;5034358;28;19920;-90
2022/03/11 09:46:45;;;;;;;;;;;;;;;2.81;70.77;102515.00;5016260;28;19961;-90
2022/03/11 09:49:14;;;;;;;;;;;;;;;2.83;70.29;102522.94;5015007;28;20405;-90
2022/03/11 09:51:49;;;;;;;;;;;;;;;2.82;70.12;102496.22;5036819;28;19917;-90
2022/03/11 09:54:22;;;;;;;;;;;;;;;2.93;70.69;102512.00;5045202;28;19913;-89
2022/03/11 09:56:47;;;;;;;;;;;;;;;2.85;70.77;102506.88;5013168;28;19918;-89
2022/03/11 09:59:13;;;;;;;;;;;;;;;2.81;70.81;102525.34;5009193;28;19925;-90
2022/03/11 10:01:42;;;;;;;;;;;;;;;2.80;70.29;102502.88;5004180;28;20020;-88
2022/03/11 10:04:08;;;;;;;;;;;;;;;2.80;70.50;102513.19;5017368;28;19913;-88
2022/03/11 10:06:46;;;;;;;;;;;;;;;2.83;70.78;102510.94;5028840;28;20533;-90
2022/03/11 10:09:17;;;;;;;;;;;;;;;2.87;70.73;102498.41;5015892;28;20394;-89
2022/03/11 10:11:58;;;;;;;;;;;;;;;2.81;70.59;102511.53;5034987;28;19917;-88
2022/03/11 10:14:31;;;;;;;;;;;;;;;2.80;70.83;102501.97;5017458;28;19943;-86
2022/03/11 10:16:56;;;;;;;;;;;;;;;2.79;70.39;102507.84;5018431;28;19921;-88
2022/03/11 10:19:22;;;;;;;;;;;;;;;2.82;70.54;102524.59;5001709;28;19936;-88
2022/03/11 10:21:48;;;;;;;;;;;;;;;2.82;70.67;102521.13;5027765;28;20443;-87
2022/03/11 10:24:15;;;;;;;;;;;;;;;2.82;70.26;102526.28;5027415;28;19935;-87
2022/03/11 10:26:43;;;;;;;;;;;;;;;2.80;70.75;102510.63;5036148;28;19927;-88
2022/03/11 10:29:09;;;;;;;;;;;;;;;2.81;71.17;102522.75;5039552;28;19924;-87
2022/03/11 10:31:36;;;;;;;;;;;;;;;2.85;70.71;102527.53;5015414;28;19916;-87
2022/03/11 10:34:25;;;;;;;;;;;;;;;2.87;70.47;102525.13;5013084;28;19976;-87
2022/03/11 10:36:55;;;;;;;;;;;;;;;2.87;70.79;102526.78;5012513;28;19917;-87
2022/03/11 10:39:27;;;;;;;;;;;;;;;2.90;70.68;102535.81;4996375;28;19921;-88
2022/03/11 10:41:53;;;;;;;;;;;;;;;2.97;70.43;102533.16;5014244;28;20005;-88
2022/03/11 10:44:25;;;;;;;;;;;;;;;2.89;70.56;102513.31;5014645;28;20314;-90
2022/03/11 10:46:53;;;;;;;;;;;;;;;3.11;68.33;102511.50;4997335;28;20379;-91
2022/03/11 10:49:33;;;;;;;;;;;;;;;3.01;69.41;102508.63;5013449;28;19955;-90
2022/03/11 10:52:02;;;;;;;;;;;;;;;3.00;70.25;102507.69;4997397;28;19971;-90
2022/03/11 10:54:41;;;;;;;;;;;;;;;3.20;68.92;102499.59;4997412;28;19964;-90
2022/03/11 10:57:10;;;;;;;;;;;;;;;3.04;69.86;102517.59;4993735;28;19929;-90
2022/03/11 10:59:37;;;;;;;;;;;;;;;3.07;69.86;102511.91;4993749;28;20480;-89
2022/03/11 11:02:10;;;;;;;;;;;;;;;3.13;70.10;102494.47;5010294;28;19913;-89
2022/03/11 11:04:43;;;;;;;;;;;;;;;3.08;69.96;102508.56;5009899;28;19921;-89
2022/03/11 11:07:11;;;;;;;;;;;;;;;3.02;70.31;102515.59;5009982;28;19914;-89
2022/03/11 11:09:38;;;;;;;;;;;;;;;3.10;69.86;102507.06;4993534;28;19953;-90
2022/03/11 11:12:05;;;;;;;;;;;;;;;3.08;69.85;102498.22;4993554;28;19921;-88
2022/03/11 11:14:37;;;;;;;;;;;;;;;3.08;70.04;102503.38;5009835;28;19964;-89
2022/03/11 11:17:03;;;;;;;;;;;;;;;3.03;69.94;102515.78;4994579;28;19920;-89
2022/03/11 11:19:29;;;;;;;;;;;;;;;2.95;70.03;102505.34;5009986;28;19914;-89
2022/03/11 11:21:54;;;;;;;;;;;;;;;2.95;69.99;102514.00;5009731;28;19914;-90
2022/03/11 11:24:23;;;;;;;;;;;;;;;2.98;70.07;102488.53;4993365;28;19914;-89
2022/03/11 11:26:55;;;;;;;;;;;;;;;3.00;69.64;102488.72;4993383;28;19921;-90
2022/03/11 11:29:25;;;;;;;;;;;;;;;2.94;69.76;102485.44;4993255;28;19967;-89
2022/03/11 11:31:53;;;;;;;;;;;;;;;2.99;70.93;102479.16;4993399;28;19953;-90
2022/03/11 11:34:27;;;;;;;;;;;;;;;3.00;70.83;102492.19;5009694;28;19989;-89
2022/03/11 11:37:06;;;;;;;;;;;;;;;2.98;70.44;102485.03;4994637;28;19971;-89
2022/03/11 11:39:38;;;;;;;;;;;;;;;2.97;70.04;102490.97;5009380;28;19948;-90
2022/03/11 11:42:12;;;;;;;;;;;;;;;3.18;69.42;102497.59;4993076;28;19937;-89
2022/03/11 11:44:40;;;;;;;;;;;;;;;3.09;68.96;102494.91;4992828;28;19914;-89
2022/03/11 11:47:16;;;;;;;;;;;;;;;3.04;70.33;102493.47;4993700;28;20438;-88
2022/03/11 11:49:52;;;;;;;;;;;;;;;3.05;70.70;102503.97;4992453;28;19917;-87
2022/03/11 11:52:28;;;;;;;;;;;;;;;3.03;69.96;102499.41;4992117;28;19913;-88
2022/03/11 11:54:56;;;;;;;;;;;;;;;3.04;70.62;102493.47;5012043;28;19914;-88
2022/03/11 11:57:23;;;;;;;;;;;;;;;3.08;70.88;102492.16;5011840;28;20020;-89
2022/03/11 11:59:57;;;;;;;;;;;;;;;3.14;70.46;102479.94;4996142;28;19921;-89
2022/03/11 12:02:26;;;;;;;;;;;;;;;3.19;70.50;102495.16;4996034;28;19953;-89
2022/03/11 12:04:51;;;;;;;;;;;;;;;3.22;71.07;102474.88;5012427;28;19917;-90
2022/03/11 12:07:18;;;;;;;;;;;;;;;3.20;70.05;102488.38;5012262;28;20471;-89
2022/03/11 12:09:53;;;;;;;;;;;;;;;3.20;70.39;102502.19;5012437;28;20000;-88
2022/03/11 12:12:34;;;;;;;;;;;;;;;3.33;70.31;102500.97;4996160;28;19913;-91
2022/03/11 12:15:08;;;;;;;;;;;;;;;3.23;70.37;102492.19;5011915;28;19914;-90
2022/03/11 12:17:38;;;;;;;;;;;;;;;3.28;70.22;102496.94;5011423;28;19964;-88
2022/03/11 12:20:22;;;;;;;;;;;;;;;3.38;69.85;102502.38;5012040;28;19917;-87
2022/03/11 12:22:54;;;;;;;;;;;;;;;3.46;69.70;102486.06;5011855;28;19913;-87
2022/03/11 12:25:38;;;;;;;;;;;;;;;3.49;69.63;102485.47;5010660;28;19956;-87
2022/03/11 12:28:07;;;;;;;;;;;;;;;3.45;70.09;102464.50;5010935;28;19914;-88
2022/03/11 12:30:41;;;;;;;;;;;;;;;3.44;70.33;102469.50;5011367;28;19980;-87
2022/03/11 12:33:26;;;;;;;;;;;;;;;3.64;69.73;102488.09;5010923;28;19987;-88
2022/03/11 12:35:53;;;;;;;;;;;;;;;3.53;69.83;102477.31;4995134;28;19989;-88
2022/03/11 12:38:24;;;;;;;;;;;;;;;3.57;69.52;102479.50;4994304;28;19913;-86
2022/03/11 12:40:50;;;;;;;;;;;;;;;3.73;69.37;102484.69;5012331;28;19914;-88
2022/03/11 12:43:16;;;;;;;;;;;;;;;3.73;68.64;102467.50;4993066;28;19992;-88
2022/03/11 12:45:46;;;;;;;;;;;;;;;3.73;69.17;102472.66;5009810;28;19924;-87
2022/03/11 12:48:12;;;;;;;;;;;;;;;3.78;68.92;102486.09;5026203;28;19922;-88
2022/03/11 12:50:38;;;;;;;;;;;;;;;3.73;68.94;102471.75;5027883;28;19917;-89